Time;durP1;ratioP1;P1;durP2;ratioP2;P2;SDS_P1;SDS_P2;PMS_P1;PMS_P2;Temp;Humidity;BMP_temperature;BMP_pressure;BME280_temperature;BME280_humidity;BME280_pressure;Samples;Min_cycle;Max_cycle;Signal;HPM_P1;HPM_P2
2023/12/18 00:00:34;;;;;;;4.45;0.57;;;;;;;4.88;79.95;102686.91;4983369;28;20035;-68
2023/12/18 00:02:59;;;;;;;1.55;0.60;;;;;;;4.94;79.02;102675.53;4983757;28;20349;-68
2023/12/18 00:05:24;;;;;;;3.38;0.55;;;;;;;4.95;79.72;102682.38;5003343;28;20026;-68
2023/12/18 00:07:50;;;;;;;2.45;0.80;;;;;;;4.95;79.58;102675.47;5002910;28;20432;-68
2023/12/18 00:10:15;;;;;;;2.63;0.63;;;;;;;4.94;79.25;102676.38;4985789;28;20537;-68
2023/12/18 00:12:41;;;;;;;1.40;0.50;;;;;;;4.89;79.27;102673.09;4965748;28;20116;-68
2023/12/18 00:15:07;;;;;;;2.80;0.85;;;;;;;4.80;80.17;102676.00;4985550;28;20118;-68
2023/12/18 00:17:32;;;;;;;2.78;0.50;;;;;;;4.79;80.75;102666.56;4988958;28;20441;-68
2023/12/18 00:19:59;;;;;;;1.33;0.40;;;;;;;4.84;79.89;102669.84;4961932;28;20378;-68
2023/12/18 00:22:24;;;;;;;2.05;0.40;;;;;;;4.91;79.89;102666.16;4984250;28;20049;-68
2023/12/18 00:24:50;;;;;;;3.50;0.40;;;;;;;4.93;79.74;102666.94;4987282;28;20026;-68
2023/12/18 00:27:15;;;;;;;3.03;0.50;;;;;;;4.96;79.25;102669.41;4988593;28;20030;-68
2023/12/18 00:29:40;;;;;;;2.92;0.55;;;;;;;5.02;78.23;102668.34;4990734;28;20573;-68
2023/12/18 00:32:06;;;;;;;2.58;0.63;;;;;;;5.02;79.68;102673.50;4990427;28;20133;-68
2023/12/18 00:34:32;;;;;;;2.08;0.60;;;;;;;5.02;78.81;102667.50;5016343;28;20068;-68
2023/12/18 00:36:57;;;;;;;2.25;0.73;;;;;;;5.02;79.36;102659.75;5025681;28;20557;-68
2023/12/18 00:39:23;;;;;;;4.90;1.33;;;;;;;4.82;80.08;102663.88;5025909;28;20034;-68
2023/12/18 00:41:48;;;;;;;5.75;1.40;;;;;;;4.55;82.06;102659.69;5026524;28;20064;-68
2023/12/18 00:44:14;;;;;;;6.25;1.80;;;;;;;4.26;82.92;102664.06;5027212;28;20156;-68
2023/12/18 00:46:39;;;;;;;6.15;2.05;;;;;;;3.99;83.39;102672.72;5028048;28;20087;-68
2023/12/18 00:49:04;;;;;;;3.78;1.05;;;;;;;4.23;82.60;102669.38;5027512;28;20076;-68
2023/12/18 00:51:30;;;;;;;4.63;0.80;;;;;;;4.51;81.86;102669.28;5028387;28;20029;-68
2023/12/18 00:53:56;;;;;;;1.70;0.60;;;;;;;4.65;80.96;102658.50;5025158;28;20034;-68
2023/12/18 00:56:21;;;;;;;3.38;0.70;;;;;;;4.66;81.41;102650.69;5026315;28;20048;-68
2023/12/18 00:58:47;;;;;;;2.03;0.52;;;;;;;4.46;81.18;102666.00;5027650;28;20112;-68
2023/12/18 01:01:12;;;;;;;2.47;0.60;;;;;;;4.69;79.70;102657.50;5025035;28;20057;-68
2023/12/18 01:03:38;;;;;;;4.57;0.63;;;;;;;4.77;79.93;102652.88;5024737;28;20040;-68
2023/12/18 01:06:05;;;;;;;1.10;0.52;;;;;;;4.70;80.79;102648.84;5020359;28;20080;-68
2023/12/18 01:08:30;;;;;;;2.45;0.63;;;;;;;4.62;81.23;102653.44;5026191;28;20120;-68
2023/12/18 01:10:56;;;;;;;1.98;0.50;;;;;;;4.57;80.89;102650.16;5026594;28;20109;-68
2023/12/18 01:13:22;;;;;;;3.28;0.47;;;;;;;4.66;80.50;102652.44;5026877;28;20496;-68
2023/12/18 01:15:47;;;;;;;2.28;0.60;;;;;;;4.70;80.06;102651.44;5030821;28;20108;-68
2023/12/18 01:18:13;;;;;;;2.95;0.60;;;;;;;4.73;80.05;102647.88;5028887;28;20556;-68
2023/12/18 01:20:38;;;;;;;2.58;0.40;;;;;;;4.68;80.40;102648.06;5030395;28;20096;-68
2023/12/18 01:23:05;;;;;;;4.57;0.55;;;;;;;4.65;80.51;102643.84;5027426;28;20377;-68
2023/12/18 01:25:31;;;;;;;1.48;0.30;;;;;;;4.65;81.03;102640.41;5024921;28;20045;-68
2023/12/18 01:27:56;;;;;;;1.90;0.47;;;;;;;4.70;80.50;102642.84;5030301;28;20065;-68
2023/12/18 01:30:21;;;;;;;1.52;0.63;;;;;;;4.68;80.02;102650.63;5027887;28;20026;-68
2023/12/18 01:32:47;;;;;;;2.20;0.60;;;;;;;4.85;78.57;102635.38;5030865;28;20021;-68
2023/12/18 01:35:12;;;;;;;2.65;0.80;;;;;;;4.87;79.25;102643.91;5027841;28;20069;-68
2023/12/18 01:37:38;;;;;;;1.15;0.55;;;;;;;4.83;78.39;102642.31;5030645;28;20437;-68
2023/12/18 01:40:03;;;;;;;1.42;0.32;;;;;;;4.79;79.73;102633.00;5029115;28;20507;-68
2023/12/18 01:42:29;;;;;;;2.33;0.63;;;;;;;4.74;79.84;102631.47;5027038;28;20495;-68
2023/12/18 01:44:54;;;;;;;1.95;0.32;;;;;;;4.75;79.43;102636.59;5031940;28;20039;-68
2023/12/18 01:47:20;;;;;;;3.28;0.40;;;;;;;4.76;79.25;102629.69;5028997;28;20427;-68
2023/12/18 01:49:45;;;;;;;3.03;0.50;;;;;;;4.81;79.10;102628.63;5026741;28;20033;-68
2023/12/18 01:52:11;;;;;;;0.68;0.38;;;;;;;4.89;78.70;102625.75;5027392;28;20407;-68
2023/12/18 01:54:37;;;;;;;1.88;0.60;;;;;;;4.89;79.00;102625.75;5027361;28;20084;-68
2023/12/18 01:57:04;;;;;;;1.38;0.30;;;;;;;4.89;79.08;102621.44;5028300;28;20033;-68
2023/12/18 01:59:31;;;;;;;5.28;0.68;;;;;;;4.79;79.76;102620.09;5027255;28;20029;-68
2023/12/18 02:01:57;;;;;;;2.45;0.40;;;;;;;4.56;80.66;102614.91;5029124;28;20476;-68
2023/12/18 02:04:23;;;;;;;1.73;0.63;;;;;;;4.51;81.10;102609.06;5027629;28;20025;-68
2023/12/18 02:06:49;;;;;;;0.90;0.35;;;;;;;4.56;81.18;102608.00;5028391;28;20061;-68
2023/12/18 02:09:15;;;;;;;1.65;0.47;;;;;;;4.65;79.39;102607.69;5029414;28;20036;-68
2023/12/18 02:11:44;;;;;;;1.30;0.40;;;;;;;4.74;79.35;102596.16;5024235;28;20592;-68
2023/12/18 02:14:10;;;;;;;2.47;0.50;;;;;;;4.73;78.28;102604.81;5026035;28;20076;-68
2023/12/18 02:16:35;;;;;;;1.77;0.40;;;;;;;4.81;79.06;102595.03;5029008;28;20025;-68
2023/12/18 02:19:01;;;;;;;1.20;0.40;;;;;;;4.75;79.77;102589.25;5030199;28;20500;-68
2023/12/18 02:21:26;;;;;;;1.00;0.38;;;;;;;4.80;79.03;102583.03;5023652;28;20087;-68
2023/12/18 02:23:52;;;;;;;2.10;0.40;;;;;;;4.93;78.26;102583.44;5028717;28;20035;-68
2023/12/18 02:26:17;;;;;;;2.88;0.35;;;;;;;4.99;77.86;102578.88;5028663;28;20033;-68
2023/12/18 02:28:46;;;;;;;0.90;0.30;;;;;;;4.96;78.28;102573.81;5027612;28;20120;-68
2023/12/18 02:31:13;;;;;;;1.40;0.50;;;;;;;4.85;78.00;102567.38;5026480;28;20033;-68
2023/12/18 02:33:39;;;;;;;1.65;0.20;;;;;;;4.81;78.57;102564.06;5022181;28;20603;-68
2023/12/18 02:36:05;;;;;;;1.92;0.30;;;;;;;4.78;78.95;102566.75;5021638;28;20116;-68
2023/12/18 02:38:30;;;;;;;0.82;0.30;;;;;;;4.81;77.89;102571.78;5024971;28;20400;-68
2023/12/18 02:40:55;;;;;;;1.75;0.30;;;;;;;4.89;78.47;102562.03;5027477;28;20065;-68
2023/12/18 02:43:21;;;;;;;4.70;0.40;;;;;;;4.87;78.45;102556.06;5024034;28;20061;-68
2023/12/18 02:45:46;;;;;;;5.07;0.35;;;;;;;4.84;78.30;102556.19;5026331;28;20854;-68
2023/12/18 02:48:12;;;;;;;1.80;0.45;;;;;;;4.84;78.22;102556.19;5030995;28;20037;-68
2023/12/18 02:50:38;;;;;;;2.28;0.52;;;;;;;5.04;77.83;102557.19;5020526;28;20030;-68
2023/12/18 02:53:04;;;;;;;1.83;0.20;;;;;;;4.99;78.11;102537.53;5021792;28;20120;-68
2023/12/18 02:55:29;;;;;;;1.45;0.40;;;;;;;4.99;77.63;102526.38;5019761;28;20447;-68
2023/12/18 02:57:54;;;;;;;0.90;0.40;;;;;;;4.95;77.97;102525.63;5019655;28;20036;-68
2023/12/18 03:00:20;;;;;;;1.80;0.40;;;;;;;4.86;78.35;102533.72;5018088;28;20033;-68
2023/12/18 03:02:45;;;;;;;1.83;0.55;;;;;;;4.87;78.38;102532.00;5019885;28;20107;-68
2023/12/18 03:05:11;;;;;;;2.15;0.20;;;;;;;4.80;79.36;102536.53;5022014;28;20420;-68
2023/12/18 03:07:36;;;;;;;2.75;0.25;;;;;;;4.79;78.87;102529.69;5017808;28;20432;-68
2023/12/18 03:10:02;;;;;;;1.67;0.40;;;;;;;4.88;79.11;102531.94;5019001;28;20091;-68
2023/12/18 03:12:28;;;;;;;1.05;0.20;;;;;;;4.92;77.97;102527.50;5017268;28;20044;-68
2023/12/18 03:14:53;;;;;;;3.70;0.25;;;;;;;4.97;77.60;102520.41;5026669;28;20033;-68
2023/12/18 03:17:19;;;;;;;2.33;0.63;;;;;;;4.97;77.71;102525.59;5009770;28;20025;-68
2023/12/18 03:19:44;;;;;;;2.00;0.50;;;;;;;4.89;78.33;102518.13;5024029;28;20379;-68
2023/12/18 03:22:10;;;;;;;1.20;0.40;;;;;;;4.87;78.33;102525.09;5026981;28;20036;-68
2023/12/18 03:24:38;;;;;;;1.55;0.45;;;;;;;4.82;78.39;102524.41;5026127;28;20029;-68
2023/12/18 03:27:03;;;;;;;2.38;0.47;;;;;;;4.83;78.42;102525.25;5028297;28;20029;-68
2023/12/18 03:29:29;;;;;;;2.60;0.55;;;;;;;4.76;78.99;102527.22;5027408;28;20041;-68
2023/12/18 03:31:54;;;;;;;5.28;0.60;;;;;;;4.72;78.57;102522.25;5027581;28;20481;-68
2023/12/18 03:34:20;;;;;;;2.53;0.38;;;;;;;4.76;78.56;102524.63;5025504;28;20771;-69
2023/12/18 03:36:45;;;;;;;1.45;0.40;;;;;;;4.73;78.85;102527.34;5026258;28;20107;-68
2023/12/18 03:39:10;;;;;;;2.55;0.30;;;;;;;4.73;79.03;102523.91;5024197;28;20355;-68
2023/12/18 03:41:36;;;;;;;3.03;0.50;;;;;;;4.77;78.41;102528.91;5026146;28;20048;-68
2023/12/18 03:44:01;;;;;;;2.00;0.52;;;;;;;4.77;79.03;102522.91;5023089;28;20026;-68
2023/12/18 03:46:27;;;;;;;1.88;0.55;;;;;;;4.71;78.96;102524.00;5025682;28;20036;-68
2023/12/18 03:48:52;;;;;;;1.25;0.43;;;;;;;4.68;78.82;102516.34;5017961;28;20035;-68
2023/12/18 03:51:17;;;;;;;0.98;0.25;;;;;;;4.60;79.69;102521.81;5019755;28;20392;-68
2023/12/18 03:53:43;;;;;;;1.77;0.30;;;;;;;4.61;79.50;102517.47;5020067;28;20040;-68
2023/12/18 03:56:08;;;;;;;1.45;0.30;;;;;;;4.63;79.27;102516.53;5020669;28;20045;-68
2023/12/18 03:58:34;;;;;;;1.38;0.40;;;;;;;4.66;78.59;102513.84;5019251;28;20079;-68
2023/12/18 04:01:00;;;;;;;1.77;0.30;;;;;;;4.67;79.06;102512.09;5020612;28;20120;-68
2023/12/18 04:03:25;;;;;;;2.67;0.50;;;;;;;4.68;78.68;102513.78;5019164;28;20033;-68
2023/12/18 04:05:51;;;;;;;2.20;0.30;;;;;;;4.66;78.79;102505.25;5022427;28;20056;-68
2023/12/18 04:08:16;;;;;;;2.38;0.52;;;;;;;4.70;78.41;102514.56;5023964;28;20033;-68
2023/12/18 04:10:42;;;;;;;1.85;0.60;;;;;;;4.74;78.56;102510.09;5006959;28;20036;-68
2023/12/18 04:13:08;;;;;;;1.98;0.32;;;;;;;4.81;78.17;102502.06;5009225;28;20509;-68
2023/12/18 04:15:33;;;;;;;3.60;0.40;;;;;;;4.78;78.06;102504.75;5026807;28;20060;-68
2023/12/18 04:17:59;;;;;;;2.22;0.30;;;;;;;4.74;78.29;102503.19;5025390;28;20116;-68
2023/12/18 04:20:24;;;;;;;2.65;0.20;;;;;;;4.72;78.25;102499.84;5024392;28;20037;-68
2023/12/18 04:22:50;;;;;;;1.73;0.55;;;;;;;4.74;77.39;102508.34;5023977;28;20037;-68
2023/12/18 04:25:15;;;;;;;2.90;0.30;;;;;;;4.72;78.36;102492.09;5026441;28;20021;-68
2023/12/18 04:27:41;;;;;;;2.97;0.38;;;;;;;4.72;77.98;102486.94;5026689;28;20029;-68
2023/12/18 04:30:07;;;;;;;1.90;0.30;;;;;;;4.62;79.18;102486.44;5025774;28;20092;-68
2023/12/18 04:32:32;;;;;;;2.35;0.32;;;;;;;4.67;78.69;102494.03;5025004;28;20056;-68
2023/12/18 04:34:58;;;;;;;3.03;0.30;;;;;;;4.70;78.77;102490.47;5028013;28;20045;-68
2023/12/18 04:37:23;;;;;;;1.48;0.50;;;;;;;4.64;79.14;102492.38;5030688;28;20048;-68
2023/12/18 04:39:49;;;;;;;2.10;0.50;;;;;;;4.67;78.49;102491.44;5024971;28;20029;-68
2023/12/18 04:42:14;;;;;;;1.58;0.43;;;;;;;4.69;79.53;102494.81;5027493;28;20029;-68
2023/12/18 04:44:40;;;;;;;2.78;0.40;;;;;;;4.64;78.53;102491.56;5031049;28;20029;-68
2023/12/18 04:47:05;;;;;;;1.50;0.30;;;;;;;4.71;78.15;102485.25;5031441;28;20381;-68
2023/12/18 04:49:30;;;;;;;1.30;0.70;;;;;;;4.69;78.23;102493.97;5030133;28;20220;-68
2023/12/18 04:51:56;;;;;;;0.65;0.20;;;;;;;4.68;78.28;102482.78;5031121;28;20031;-68
2023/12/18 04:54:21;;;;;;;2.40;0.40;;;;;;;4.67;78.64;102488.84;5029700;28;20087;-68
2023/12/18 04:56:47;;;;;;;3.38;0.35;;;;;;;4.73;78.44;102486.00;5035075;28;20029;-68
2023/12/18 04:59:13;;;;;;;1.70;0.40;;;;;;;4.76;78.20;102487.63;5013647;28;20068;-68
2023/12/18 05:01:39;;;;;;;3.35;0.65;;;;;;;4.74;79.32;102492.03;5031256;28;20052;-68
2023/12/18 05:04:05;;;;;;;2.67;0.57;;;;;;;4.49;80.99;102502.44;5029631;28;20068;-68
2023/12/18 05:06:30;;;;;;;6.80;0.95;;;;;;;4.14;82.38;102501.13;5029144;28;20022;-68
2023/12/18 05:08:55;;;;;;;3.10;0.75;;;;;;;3.79;84.33;102510.03;5009786;28;20048;-68
2023/12/18 05:11:25;;;;;;;1.83;0.47;;;;;;;3.82;83.22;102505.63;5022500;28;20037;-68
2023/12/18 05:13:51;;;;;;;1.77;0.38;;;;;;;4.24;80.74;102502.50;5032339;28;20038;-68
2023/12/18 05:16:18;;;;;;;2.10;0.40;;;;;;;4.49;80.69;102492.09;5031040;28;20030;-68
2023/12/18 05:18:44;;;;;;;1.33;0.20;;;;;;;4.60;79.56;102493.41;5025792;28;20117;-68
2023/12/18 05:21:11;;;;;;;1.23;0.30;;;;;;;4.60;79.12;102493.41;5029340;28;20124;-68
2023/12/18 05:23:36;;;;;;;1.75;0.40;;;;;;;4.68;78.71;102494.84;5033810;28;20091;-68
2023/12/18 05:26:02;;;;;;;1.33;0.30;;;;;;;4.68;78.98;102492.28;5031447;28;20037;-68
2023/12/18 05:28:28;;;;;;;1.05;0.32;;;;;;;4.63;78.38;102495.88;5030498;28;20100;-68
2023/12/18 05:30:53;;;;;;;1.95;0.20;;;;;;;4.56;79.87;102496.16;5010856;28;20084;-68
2023/12/18 05:33:19;;;;;;;2.28;0.50;;;;;;;4.53;79.44;102488.50;5028503;28;20049;-67
2023/12/18 05:35:44;;;;;;;1.92;0.30;;;;;;;4.56;79.43;102491.81;5026167;28;20081;-68
2023/12/18 05:38:10;;;;;;;1.67;0.30;;;;;;;4.59;79.35;102489.13;5028265;28;20034;-68
2023/12/18 05:40:36;;;;;;;1.95;0.30;;;;;;;4.52;80.24;102497.16;5027366;28;20037;-69
2023/12/18 05:43:02;;;;;;;1.02;0.28;;;;;;;4.43;80.38;102488.00;5028722;28;20091;-68
2023/12/18 05:45:28;;;;;;;3.33;0.30;;;;;;;4.52;78.99;102497.16;5028327;28;20040;-68
2023/12/18 05:47:54;;;;;;;1.40;0.40;;;;;;;4.55;79.68;102499.63;5024763;28;20060;-68
2023/12/18 05:50:20;;;;;;;1.98;0.30;;;;;;;4.50;79.65;102494.63;5025939;28;20160;-68
2023/12/18 05:52:46;;;;;;;2.85;0.45;;;;;;;4.44;79.75;102487.09;5028768;28;20165;-68
2023/12/18 05:55:11;;;;;;;1.35;0.30;;;;;;;4.46;79.82;102487.91;5026737;28;20504;-68
2023/12/18 05:57:37;;;;;;;5.88;0.80;;;;;;;4.49;79.66;102487.78;5029744;28;20386;-68
2023/12/18 06:00:07;;;;;;;2.63;0.85;;;;;;;4.58;79.18;102489.19;5031903;28;20083;-68
2023/12/18 06:02:32;;;;;;;1.98;0.55;;;;;;;4.59;79.08;102488.28;5031966;28;20029;-68
2023/12/18 06:04:59;;;;;;;0.95;0.43;;;;;;;4.58;79.02;102489.19;5029491;28;20117;-68
2023/12/18 06:07:25;;;;;;;1.90;1.00;;;;;;;4.56;79.20;102483.25;5031218;28;20485;-68
2023/12/18 06:09:50;;;;;;;0.93;0.20;;;;;;;4.47;79.01;102489.56;5027367;28;20116;-68
2023/12/18 06:12:16;;;;;;;0.63;0.30;;;;;;;4.44;79.85;102488.84;5029490;28;20032;-68
2023/12/18 06:14:41;;;;;;;3.15;0.70;;;;;;;4.45;79.45;102490.53;5028642;28;20129;-68
2023/12/18 06:17:07;;;;;;;1.55;0.30;;;;;;;4.48;79.54;102500.75;5032272;28;20116;-68
2023/12/18 06:19:34;;;;;;;1.58;0.40;;;;;;;4.49;79.20;102497.28;5032481;28;20041;-68
2023/12/18 06:22:00;;;;;;;3.53;0.50;;;;;;;4.50;79.19;102498.94;5011383;28;20038;-68
2023/12/18 06:24:26;;;;;;;1.38;0.30;;;;;;;4.51;78.81;102492.91;5029177;28;20361;-68
2023/12/18 06:26:52;;;;;;;1.70;0.45;;;;;;;4.46;79.53;102497.38;5027564;28;20120;-69
2023/12/18 06:29:18;;;;;;;1.58;0.30;;;;;;;4.45;79.75;102501.69;5029165;28;20088;-68
2023/12/18 06:31:44;;;;;;;1.02;0.30;;;;;;;4.41;79.39;102494.13;5030733;28;20033;-68
2023/12/18 06:34:11;;;;;;;1.58;0.35;;;;;;;4.36;80.02;102491.69;5028196;28;20116;-68
2023/12/18 06:36:36;;;;;;;2.85;0.40;;;;;;;4.46;79.31;102495.63;5023608;28;20051;-68
2023/12/18 06:39:03;;;;;;;2.38;0.40;;;;;;;4.47;79.70;102494.75;5031419;28;20451;-68
2023/12/18 06:41:29;;;;;;;2.67;0.43;;;;;;;4.45;79.86;102493.97;5028480;28;20029;-68
2023/12/18 06:43:54;;;;;;;1.70;0.60;;;;;;;4.42;79.92;102499.22;5026432;28;20048;-68
2023/12/18 06:46:20;;;;;;;1.48;0.60;;;;;;;4.42;79.30;102495.81;5029941;28;20017;-68
2023/12/18 06:48:45;;;;;;;2.92;0.20;;;;;;;4.43;79.48;102494.91;5030420;28;20064;-68
2023/12/18 06:51:11;;;;;;;1.20;0.60;;;;;;;4.36;79.57;102504.59;5031020;28;20044;-68
2023/12/18 06:53:37;;;;;;;3.03;0.50;;;;;;;4.36;79.95;102507.19;5028396;28;20044;-68
2023/12/18 06:56:02;;;;;;;1.90;0.43;;;;;;;4.35;80.06;102502.94;5033138;28;20433;-68
2023/12/18 06:58:28;;;;;;;3.13;0.30;;;;;;;4.40;79.60;102500.19;5035404;28;20128;-68
2023/12/18 07:00:53;;;;;;;4.75;0.50;;;;;;;4.40;79.99;102505.34;5029710;28;20033;-68
2023/12/18 07:03:19;;;;;;;2.22;0.32;;;;;;;4.39;79.94;102506.25;5030800;28;20048;-68
2023/12/18 07:05:45;;;;;;;3.30;0.50;;;;;;;4.39;79.91;102506.25;5030712;28;20033;-68
2023/12/18 07:08:10;;;;;;;2.13;0.50;;;;;;;4.34;80.69;102503.81;5028040;28;20108;-68
2023/12/18 07:10:36;;;;;;;2.80;0.55;;;;;;;4.37;80.04;102508.88;5033553;28;20129;-68
2023/12/18 07:13:01;;;;;;;1.83;0.45;;;;;;;4.38;80.22;102505.41;5029821;28;20037;-68
2023/12/18 07:15:27;;;;;;;1.48;0.30;;;;;;;4.46;79.11;102512.88;5006392;28;20038;-68
2023/12/18 07:17:52;;;;;;;2.95;0.30;;;;;;;4.51;78.64;102510.97;5029152;28;20051;-69
2023/12/18 07:20:18;;;;;;;1.52;0.38;;;;;;;4.52;79.27;102516.06;5029439;28;20112;-69
2023/12/18 07:22:44;;;;;;;1.92;0.40;;;;;;;4.54;78.85;102522.03;5028790;28;20040;-69
2023/12/18 07:25:09;;;;;;;2.53;0.40;;;;;;;4.59;79.42;102520.13;5034380;28;20021;-69
2023/12/18 07:27:38;;;;;;;2.22;0.43;;;;;;;4.62;78.60;102529.50;5030255;28;20393;-69
2023/12/18 07:30:04;;;;;;;3.17;0.45;;;;;;;4.61;79.35;102523.50;5029134;28;20387;-69
2023/12/18 07:32:31;;;;;;;2.35;0.70;;;;;;;4.62;78.46;102527.75;5033771;28;20042;-69
2023/12/18 07:34:59;;;;;;;3.00;0.85;;;;;;;4.64;79.34;102522.53;5029807;28;20029;-69
2023/12/18 07:37:28;;;;;;;1.92;0.50;;;;;;;4.66;78.78;102525.91;5004626;28;20061;-69
2023/12/18 07:39:55;;;;;;;1.73;0.52;;;;;;;4.72;77.92;102530.00;5029944;28;20033;-69
2023/12/18 07:42:21;;;;;;;0.95;0.40;;;;;;;4.75;78.83;102524.69;5027833;28;20139;-69
2023/12/18 07:44:47;;;;;;;2.10;0.50;;;;;;;4.82;78.25;102531.31;5030406;28;20041;-69
2023/12/18 07:47:12;;;;;;;2.45;0.70;;;;;;;4.84;78.46;102525.19;5027457;28;20026;-69
2023/12/18 07:49:37;;;;;;;0.93;0.32;;;;;;;4.83;78.07;102533.84;5031734;28;20045;-69
2023/12/18 07:52:03;;;;;;;1.92;0.43;;;;;;;4.84;78.67;102530.38;5031443;28;20083;-69
2023/12/18 07:54:28;;;;;;;1.65;0.40;;;;;;;4.88;77.75;102516.44;5030261;28;20106;-69
2023/12/18 07:56:54;;;;;;;1.02;0.40;;;;;;;4.88;78.40;102526.75;5025790;28;20042;-69
2023/12/18 07:59:20;;;;;;;2.55;0.47;;;;;;;4.82;78.14;102511.50;5029471;28;20037;-69
2023/12/18 08:01:45;;;;;;;2.25;0.60;;;;;;;4.91;78.48;102518.06;5007314;28;20033;-69
2023/12/18 08:04:11;;;;;;;4.28;0.40;;;;;;;4.98;77.83;102516.94;5029703;28;20053;-69
2023/12/18 08:06:37;;;;;;;2.13;0.50;;;;;;;5.00;77.61;102521.13;5034649;28;20060;-69
2023/12/18 08:09:03;;;;;;;3.30;0.40;;;;;;;5.00;77.72;102512.56;5028374;28;20025;-69
2023/12/18 08:11:28;;;;;;;1.40;0.40;;;;;;;5.10;77.64;102513.88;5027834;28;20381;-69
2023/12/18 08:13:54;;;;;;;2.72;0.50;;;;;;;5.17;77.55;102512.75;5029720;28;20033;-68
2023/12/18 08:16:19;;;;;;;1.73;0.50;;;;;;;5.28;77.16;102517.47;5027709;28;20082;-69
2023/12/18 08:18:46;;;;;;;1.45;0.47;;;;;;;5.36;76.72;102530.94;5028634;28;20132;-69
2023/12/18 08:21:14;;;;;;;1.15;0.40;;;;;;;5.41;76.35;102523.84;5025349;28;20056;-69
2023/12/18 08:23:40;;;;;;;2.53;0.30;;;;;;;5.42;76.20;102519.50;5026361;28;20041;-69
2023/12/18 08:26:06;;;;;;;1.85;0.30;;;;;;;5.45;76.39;102522.81;5026358;28;20218;-69
2023/12/18 08:28:31;;;;;;;1.60;0.40;;;;;;;5.51;75.92;102511.38;5028088;28;20057;-69
2023/12/18 08:30:57;;;;;;;1.50;0.60;;;;;;;5.52;75.94;102506.16;5026114;28;20080;-69
2023/12/18 08:33:22;;;;;;;2.28;0.38;;;;;;;5.60;76.33;102506.69;5026269;28;20108;-69
2023/12/18 08:35:48;;;;;;;2.63;0.60;;;;;;;5.71;76.10;102506.22;5027553;28;20061;-69
2023/12/18 08:38:13;;;;;;;2.40;0.52;;;;;;;5.79;75.54;102511.06;5028535;28;20034;-69
2023/12/18 08:40:39;;;;;;;1.58;0.63;;;;;;;5.85;74.47;102511.66;5010169;28;20037;-69
2023/12/18 08:43:05;;;;;;;2.53;0.40;;;;;;;5.98;74.13;102507.69;5029870;28;20033;-69
2023/12/18 08:45:30;;;;;;;1.13;0.32;;;;;;;6.00;74.70;102505.03;5028647;28;20163;-69
2023/12/18 08:47:59;;;;;;;3.45;1.05;;;;;;;6.10;73.64;102501.16;5024303;28;20030;-69
2023/12/18 08:50:25;;;;;;;1.17;0.30;;;;;;;6.15;74.28;102500.94;5027455;28;20033;-69
2023/12/18 08:52:51;;;;;;;1.55;0.57;;;;;;;6.24;73.50;102503.97;5035625;28;20048;-69
2023/12/18 08:55:16;;;;;;;1.15;0.40;;;;;;;6.36;72.82;102502.59;5028739;28;20477;-69
2023/12/18 08:57:42;;;;;;;0.65;0.28;;;;;;;6.48;72.37;102501.22;5032418;28;20033;-69
2023/12/18 09:00:09;;;;;;;1.30;0.25;;;;;;;6.53;71.69;102507.03;5029786;28;20048;-69
2023/12/18 09:02:34;;;;;;;1.00;0.32;;;;;;;6.55;72.46;102507.81;5028719;28;20035;-69
2023/12/18 09:05:00;;;;;;;3.08;0.50;;;;;;;6.56;73.17;102497.38;5029327;28;20033;-69
2023/12/18 09:07:25;;;;;;;3.50;0.30;;;;;;;6.64;72.47;102509.94;5028196;28;20036;-69
2023/12/18 09:09:51;;;;;;;2.17;0.30;;;;;;;6.73;71.55;102504.34;5028913;28;20037;-69
2023/12/18 09:12:17;;;;;;;2.45;0.40;;;;;;;6.79;71.42;102498.91;5032417;28;20117;-69
2023/12/18 09:14:42;;;;;;;1.35;0.20;;;;;;;6.85;72.10;102498.63;5028220;28;20033;-69
2023/12/18 09:17:08;;;;;;;1.50;0.40;;;;;;;6.88;71.44;102501.06;5029447;28;20029;-69
2023/12/18 09:19:34;;;;;;;1.08;0.40;;;;;;;6.89;71.32;102494.13;5028427;28;20025;-69
2023/12/18 09:21:59;;;;;;;3.42;0.40;;;;;;;6.88;72.28;102490.69;5027397;28;20034;-69
2023/12/18 09:24:25;;;;;;;1.20;0.38;;;;;;;6.92;72.25;102487.06;5026226;28;20471;-69
2023/12/18 09:26:51;;;;;;;1.27;0.30;;;;;;;7.01;72.53;102497.91;5029146;28;20022;-69
2023/12/18 09:29:17;;;;;;;1.35;0.30;;;;;;;7.09;71.77;102499.19;5029170;28;20099;-69
2023/12/18 09:31:43;;;;;;;0.63;0.30;;;;;;;7.21;70.20;102495.19;5030861;28;20208;-69
2023/12/18 09:34:08;;;;;;;0.70;0.28;;;;;;;7.25;71.36;102486.34;5032713;28;20060;-69
2023/12/18 09:36:34;;;;;;;1.77;0.30;;;;;;;7.33;70.53;102484.25;5028970;28;20059;-69
2023/12/18 09:38:59;;;;;;;1.85;0.70;;;;;;;7.50;70.37;102484.25;5032323;28;20555;-69
2023/12/18 09:41:26;;;;;;;1.55;0.38;;;;;;;7.59;70.21;102469.97;5029609;28;20441;-69
2023/12/18 09:43:52;;;;;;;1.42;0.30;;;;;;;7.69;70.24;102478.13;5032469;28;20037;-69
2023/12/18 09:46:24;;;;;;;1.42;0.50;;;;;;;7.74;70.18;102477.00;5030387;28;20017;-69
2023/12/18 09:48:53;;;;;;;4.82;0.40;;;;;;;7.75;70.12;102470.03;5031854;28;20031;-69
2023/12/18 09:51:26;;;;;;;0.80;0.30;;;;;;;7.88;69.42;102468.50;5031451;28;20131;-69
2023/12/18 09:53:52;;;;;;;3.40;0.20;;;;;;;8.06;69.43;102469.31;5030830;28;20473;-69
2023/12/18 09:56:21;;;;;;;2.90;0.30;;;;;;;8.11;69.25;102460.34;5031991;28;20036;-69
2023/12/18 09:58:47;;;;;;;2.42;0.40;;;;;;;8.21;69.04;102453.78;5031556;28;20067;-69
2023/12/18 10:01:14;;;;;;;1.08;0.30;;;;;;;8.26;70.23;102451.78;5028696;28;20048;-69
2023/12/18 10:03:39;;;;;;;1.25;0.38;;;;;;;8.42;68.56;102449.22;5031708;28;20029;-70
2023/12/18 10:06:05;;;;;;;1.38;0.40;;;;;;;8.47;69.26;102446.38;5031165;28;20026;-69
2023/12/18 10:08:31;;;;;;;2.72;0.40;;;;;;;8.51;67.70;102446.13;5031842;28;20112;-69
2023/12/18 10:10:56;;;;;;;1.92;0.50;;;;;;;8.62;67.35;102440.34;5031608;28;20033;-69
2023/12/18 10:13:22;;;;;;;2.17;0.50;;;;;;;8.59;68.34;102432.72;5031271;28;20039;-67
2023/12/18 10:15:47;;;;;;;1.48;0.20;;;;;;;8.62;68.58;102427.34;5031739;28;20473;-68
2023/12/18 10:18:16;;;;;;;1.55;0.30;;;;;;;8.78;69.12;102423.00;5032006;28;20065;-69
2023/12/18 10:20:42;;;;;;;2.22;0.20;;;;;;;8.98;66.97;102437.44;5031084;28;20032;-69
2023/12/18 10:23:07;;;;;;;0.80;0.40;;;;;;;9.06;66.77;102429.22;5031529;28;20420;-68
2023/12/18 10:25:35;;;;;;;0.68;0.10;;;;;;;9.12;66.90;102421.91;5031094;28;20175;-68
2023/12/18 10:28:00;;;;;;;1.80;0.22;;;;;;;9.11;68.75;102419.41;5031982;28;20025;-68
2023/12/18 10:30:28;;;;;;;1.45;0.30;;;;;;;9.21;66.92;102423.16;5030733;28;20025;-69
2023/12/18 10:32:54;;;;;;;1.35;0.30;;;;;;;9.24;67.49;102417.78;5031159;28;20045;-68
2023/12/18 10:35:21;;;;;;;1.77;0.40;;;;;;;9.34;69.28;102416.31;5029759;28;20037;-69
2023/12/18 10:37:51;;;;;;;1.85;0.38;;;;;;;9.32;69.81;102415.56;5031128;28;20025;-69
2023/12/18 10:40:23;;;;;;;1.02;0.30;;;;;;;9.47;67.80;102408.63;5031547;28;20025;-69
2023/12/18 10:43:21;;;;;;;1.52;0.30;;;;;;;9.65;65.26;102408.38;5011297;28;20034;-69
2023/12/18 10:45:47;;;;;;;0.93;0.20;;;;;;;9.79;67.90;102398.91;5025562;28;20080;-69
2023/12/18 10:48:15;;;;;;;2.35;0.40;;;;;;;9.76;67.04;102391.28;5031462;28;20112;-68
2023/12/18 10:50:42;;;;;;;2.13;0.28;;;;;;;9.72;66.07;102392.41;5029677;28;20061;-69
2023/12/18 10:53:11;;;;;;;1.58;0.30;;;;;;;9.81;66.84;102386.63;5030588;28;20041;-69
2023/12/18 10:55:38;;;;;;;1.30;0.30;;;;;;;9.93;66.64;102385.88;5029275;28;20029;-69
2023/12/18 10:58:05;;;;;;;1.30;0.38;;;;;;;9.94;66.73;102379.72;5032419;28;20111;-69
2023/12/18 11:00:34;;;;;;;4.35;0.20;;;;;;;10.00;65.88;102381.97;5028152;28;20037;-69
2023/12/18 11:03:01;;;;;;;2.47;0.52;;;;;;;10.09;65.43;102381.41;5024906;28;20037;-69
2023/12/18 11:05:28;;;;;;;2.72;0.68;;;;;;;10.13;65.69;102372.47;5032978;28;20020;-69
2023/12/18 11:07:55;;;;;;;1.75;0.50;;;;;;;10.03;68.20;102376.56;5026650;28;20037;-69
2023/12/18 11:10:21;;;;;;;1.63;0.30;;;;;;;9.99;68.71;102370.72;5032607;28;20033;-69
2023/12/18 11:12:51;;;;;;;4.30;0.95;;;;;;;10.32;64.45;102371.34;5012061;28;20095;-68
2023/12/18 11:15:43;;;;;;;3.42;0.45;;;;;;;10.42;64.43;102375.03;5026799;28;20025;-68
2023/12/18 11:18:24;;;;;;;1.00;0.20;;;;;;;10.37;66.30;102358.88;5026833;28;20322;-68
2023/12/18 11:20:51;;;;;;;2.50;0.40;;;;;;;10.41;64.61;102357.72;5029352;28;20041;-69
2023/12/18 11:23:17;;;;;;;3.60;0.75;;;;;;;10.48;66.64;102359.84;5031728;28;20393;-69
2023/12/18 11:25:48;;;;;;;1.73;0.40;;;;;;;10.50;66.60;102359.75;5022714;28;20033;-69
2023/12/18 11:28:14;;;;;;;3.72;0.40;;;;;;;10.43;65.87;102348.88;5030784;28;20495;-69